Anchorage, Utah
Current Conditions -  °F | °C
As of 4:58 PM on Saturday 25 Oct 2014 (Local Time) from KHIF Reporting Station
Clear Clear  
Wind Chill: 23°   Ceiling: Unl
Heat Index: 23°   Visibility: 10mi
Dew Point:   Wind: 17mph
Humidity: 24%   Direction: 180°S
Pressure: 29.95"   Gusts: NA
Location:  41.123°N, 112.063°W
Report Text: KHIF 252258Z AUTO 18015KT 10SM CLR 23/01 A2995 RMK AO2 PK WND 18029/06 SLP095 T02300011
Loading
Personal Weather Stations






























Interactive Weather Map
Tropical Storm Tracking
New forecast layout! Learn more

10-Day Weather Forecast

Advertisements
Track Severe Weather on mobile